createdAt,value
2016-06-22T00:00:33.893Z,19.37
2016-06-22T00:01:33.886Z,19.38
2016-06-22T00:02:33.899Z,19.39
2016-06-22T00:03:33.914Z,19.42
2016-06-22T00:04:34.559Z,19.45
2016-06-22T00:05:34.586Z,19.38
2016-06-22T00:06:34.607Z,19.42
2016-06-22T00:07:33.426Z,19.45
2016-06-22T00:08:34.054Z,19.44
2016-06-22T00:09:34.096Z,19.44
2016-06-22T00:10:34.177Z,19.47
2016-06-22T00:11:34.141Z,19.45
2016-06-22T00:12:33.531Z,19.56
2016-06-22T00:13:34.160Z,19.45
2016-06-22T00:14:34.246Z,19.47
2016-06-22T00:15:34.824Z,19.56
2016-06-22T00:16:34.238Z,19.59
2016-06-22T00:17:34.876Z,19.55
2016-06-22T00:18:34.335Z,19.45
2016-06-22T00:19:34.604Z,19.53
2016-06-22T00:20:34.337Z,19.45
2016-06-22T00:21:34.358Z,19.45
2016-06-22T00:22:34.376Z,19.56
2016-06-22T00:23:34.415Z,19.53
2016-06-22T00:24:35.027Z,19.6
2016-06-22T00:25:35.036Z,19.56
2016-06-22T00:26:34.483Z,19.48
2016-06-22T00:27:35.103Z,19.49
2016-06-22T00:28:35.122Z,19.52
2016-06-22T00:29:35.147Z,19.44
2016-06-22T00:30:35.176Z,19.62
2016-06-22T00:31:33.988Z,19.59
2016-06-22T00:32:35.221Z,19.56
2016-06-22T00:33:35.249Z,19.49
2016-06-22T00:34:34.663Z,19.44
2016-06-22T00:35:34.708Z,19.62
2016-06-22T00:36:34.705Z,19.55
2016-06-22T00:37:35.336Z,19.45
2016-06-22T00:38:35.374Z,19.49
2016-06-22T00:39:34.790Z,19.48
2016-06-22T00:40:34.835Z,19.55
2016-06-22T00:41:34.838Z,19.53
2016-06-22T00:42:35.487Z,19.52
2016-06-22T00:43:35.006Z,19.55
2016-06-22T00:44:34.877Z,19.48
2016-06-22T00:45:34.338Z,19.62
2016-06-22T00:46:34.940Z,19.44
2016-06-22T00:47:35.001Z,19.56
2016-06-22T00:48:35.577Z,19.57
2016-06-22T00:49:34.394Z,19.45
2016-06-22T00:50:35.644Z,19.44
2016-06-22T00:51:35.718Z,19.49
2016-06-22T00:52:35.077Z,19.53
2016-06-22T00:53:35.094Z,19.62
2016-06-22T00:54:35.119Z,19.62
2016-06-22T00:55:35.148Z,19.56
2016-06-22T00:56:35.777Z,19.56
2016-06-22T00:57:35.199Z,19.59
2016-06-22T00:58:35.218Z,19.57
2016-06-22T00:59:35.247Z,19.53
2016-06-22T01:00:34.719Z,19.64
2016-06-22T01:01:35.306Z,19.62
2016-06-22T01:02:35.922Z,19.57
2016-06-22T01:03:34.808Z,19.52
2016-06-22T01:04:35.336Z,19.44
2016-06-22T01:05:35.431Z,19.53
2016-06-22T01:06:35.428Z,19.55
2016-06-22T01:07:36.129Z,19.53
2016-06-22T01:08:36.082Z,19.42
2016-06-22T01:09:35.537Z,19.55
2016-06-22T01:10:36.107Z,19.45
2016-06-22T01:11:35.606Z,19.56
2016-06-22T01:12:36.153Z,19.45
2016-06-22T01:13:36.158Z,19.47
2016-06-22T01:14:36.193Z,19.48
2016-06-22T01:15:36.214Z,19.49
2016-06-22T01:16:35.116Z,19.49
2016-06-22T01:17:35.047Z,19.47
2016-06-22T01:18:35.069Z,19.39
2016-06-22T01:19:35.086Z,19.38
2016-06-22T01:20:35.728Z,19.32
2016-06-22T01:21:35.751Z,19.34
2016-06-22T01:22:35.780Z,19.3
2016-06-22T01:23:35.794Z,19.29
2016-06-22T01:24:35.818Z,19.24
2016-06-22T01:25:35.842Z,19.27
2016-06-22T01:26:35.871Z,19.19
2016-06-22T01:27:35.914Z,19.22
2016-06-22T01:28:35.917Z,19.09
2016-06-22T01:29:36.538Z,19.22
2016-06-22T01:30:35.967Z,19.24
2016-06-22T01:31:35.376Z,19.24
2016-06-22T01:32:36.641Z,19.26
2016-06-22T01:33:36.024Z,19.2
2016-06-22T01:34:36.653Z,19.26
2016-06-22T01:35:36.093Z,19.26
2016-06-22T01:36:36.707Z,19.2
2016-06-22T01:37:35.498Z,19.27
2016-06-22T01:38:36.767Z,19.27
2016-06-22T01:39:35.564Z,19.34
2016-06-22T01:40:36.187Z,19.23
2016-06-22T01:41:36.206Z,19.34
2016-06-22T01:42:36.320Z,19.35
2016-06-22T01:43:35.668Z,19.34
2016-06-22T01:44:37.009Z,19.34
2016-06-22T01:45:36.926Z,19.32
2016-06-22T01:46:36.406Z,19.34
2016-06-22T01:47:36.971Z,19.3
2016-06-22T01:48:36.381Z,19.22
2016-06-22T01:49:36.393Z,19.29
2016-06-22T01:50:37.047Z,19.27
2016-06-22T01:51:36.446Z,19.26
2016-06-22T01:52:36.455Z,19.2
2016-06-22T01:53:36.505Z,19.24
2016-06-22T01:54:35.912Z,19.23
2016-06-22T01:55:35.919Z,19.19
2016-06-22T01:56:37.203Z,19.22
2016-06-22T01:57:37.201Z,19.17
2016-06-22T01:58:35.991Z,19.09
2016-06-22T01:59:37.344Z,19.11
2016-06-22T02:00:37.275Z,19.08
2016-06-22T02:01:37.297Z,19.09
2016-06-22T02:02:36.698Z,19.08
2016-06-22T02:03:36.124Z,19.01
2016-06-22T02:04:37.345Z,19.01
2016-06-22T02:05:36.171Z,18.97
2016-06-22T02:06:36.189Z,18.88
2016-06-22T02:07:37.433Z,18.88
2016-06-22T02:08:36.837Z,18.96
2016-06-22T02:09:37.465Z,18.88
2016-06-22T02:10:36.920Z,18.91
2016-06-22T02:11:37.538Z,18.91
2016-06-22T02:12:37.589Z,18.86
2016-06-22T02:13:37.555Z,18.92
2016-06-22T02:14:37.598Z,18.97
2016-06-22T02:15:37.025Z,18.86
2016-06-22T02:16:37.630Z,18.96
2016-06-22T02:17:37.677Z,18.86
2016-06-22T02:18:37.089Z,18.92
2016-06-22T02:19:37.859Z,18.89
2016-06-22T02:20:37.136Z,18.86
2016-06-22T02:21:37.787Z,18.89
2016-06-22T02:22:37.159Z,18.88
2016-06-22T02:23:37.177Z,18.91
2016-06-22T02:24:36.680Z,18.91
2016-06-22T02:25:36.634Z,18.89
2016-06-22T02:26:37.310Z,18.92
2016-06-22T02:27:37.324Z,18.91
2016-06-22T02:28:36.767Z,18.92
2016-06-22T02:29:37.947Z,18.91
2016-06-22T02:30:38.027Z,18.88
2016-06-22T02:31:37.981Z,18.89
2016-06-22T02:32:38.055Z,18.86
2016-06-22T02:33:37.466Z,18.86
2016-06-22T02:34:37.536Z,18.88
2016-06-22T02:35:38.087Z,18.86
2016-06-22T02:36:37.505Z,18.88
2016-06-22T02:37:37.528Z,18.89
2016-06-22T02:38:37.527Z,18.81
2016-06-22T02:39:37.565Z,18.81
2016-06-22T02:40:38.284Z,18.83
2016-06-22T02:41:37.607Z,18.86
2016-06-22T02:42:37.628Z,18.85
2016-06-22T02:43:37.676Z,18.92
2016-06-22T02:44:37.677Z,18.89
2016-06-22T02:45:38.314Z,18.86
2016-06-22T02:46:38.326Z,18.92
2016-06-22T02:47:37.742Z,18.96
2016-06-22T02:48:38.374Z,18.97
2016-06-22T02:49:37.775Z,18.88
2016-06-22T02:50:37.805Z,18.96
2016-06-22T02:51:37.842Z,18.96
2016-06-22T02:52:37.887Z,18.98
2016-06-22T02:53:38.497Z,19
2016-06-22T02:54:38.535Z,18.96
2016-06-22T02:55:37.939Z,19.08
2016-06-22T02:56:37.988Z,19.08
2016-06-22T02:57:37.970Z,19.09
2016-06-22T02:58:37.988Z,19.09
2016-06-22T02:59:38.022Z,19.09
2016-06-22T03:00:38.727Z,19.16
2016-06-22T03:01:38.060Z,19.04
2016-06-22T03:02:38.087Z,19.08
2016-06-22T03:03:38.219Z,19.08
2016-06-22T03:04:38.126Z,19.09
2016-06-22T03:05:37.538Z,19.11
2016-06-22T03:06:37.600Z,19.07
2016-06-22T03:07:38.874Z,19.01
2016-06-22T03:08:37.628Z,18.97
2016-06-22T03:09:38.307Z,19
2016-06-22T03:10:38.272Z,19.05
2016-06-22T03:11:37.689Z,18.98
2016-06-22T03:12:38.329Z,19.08
2016-06-22T03:13:38.995Z,19.09
2016-06-22T03:14:38.380Z,19.05
2016-06-22T03:15:37.765Z,19.05
2016-06-22T03:16:39.033Z,19.09
2016-06-22T03:17:37.811Z,18.97
2016-06-22T03:18:38.521Z,18.94
2016-06-22T03:19:39.086Z,19
2016-06-22T03:20:38.511Z,19.05
2016-06-22T03:21:39.151Z,19.05
2016-06-22T03:22:38.550Z,19.07
2016-06-22T03:23:38.573Z,19.09
2016-06-22T03:24:39.194Z,19.05
2016-06-22T03:25:38.628Z,19.11
2016-06-22T03:26:38.636Z,19.09
2016-06-22T03:27:38.669Z,19.12
2016-06-22T03:28:38.881Z,19.11
2016-06-22T03:29:38.959Z,19.07
2016-06-22T03:30:39.386Z,19.07
2016-06-22T03:31:38.332Z,19.09
2016-06-22T03:32:39.538Z,19.07
2016-06-22T03:33:38.349Z,19.11
2016-06-22T03:34:39.523Z,19.11
2016-06-22T03:35:38.970Z,19.16
2016-06-22T03:36:39.581Z,19.08
2016-06-22T03:37:38.980Z,19.09
2016-06-22T03:38:39.692Z,19.16
2016-06-22T03:39:38.927Z,19.16
2016-06-22T03:40:39.073Z,19.16
2016-06-22T03:41:39.605Z,19.15
2016-06-22T03:42:39.103Z,19.16
2016-06-22T03:43:39.634Z,19.26
2016-06-22T03:44:38.438Z,19.16
2016-06-22T03:45:39.697Z,19.19
2016-06-22T03:46:38.482Z,19.15
2016-06-22T03:47:39.742Z,19.23
2016-06-22T03:48:39.779Z,19.23
2016-06-22T03:49:39.184Z,19.2
2016-06-22T03:50:39.178Z,19.23
2016-06-22T03:51:39.843Z,19.24
2016-06-22T03:52:39.226Z,19.35
2016-06-22T03:53:39.930Z,19.38
2016-06-22T03:54:39.298Z,19.34
2016-06-22T03:55:39.919Z,19.37
2016-06-22T03:56:39.331Z,19.34
2016-06-22T03:57:38.745Z,19.35
2016-06-22T03:58:39.364Z,19.35
2016-06-22T03:59:40.002Z,19.39
2016-06-22T04:00:38.829Z,19.39
2016-06-22T04:01:39.462Z,19.44
2016-06-22T04:02:40.160Z,19.48
2016-06-22T04:03:39.507Z,19.42
2016-06-22T04:04:39.626Z,19.44
2016-06-22T04:05:40.184Z,19.57
2016-06-22T04:06:40.202Z,19.62
2016-06-22T04:07:40.175Z,19.52
2016-06-22T04:08:39.610Z,19.63
2016-06-22T04:09:40.235Z,19.72
2016-06-22T04:10:39.059Z,19.67
2016-06-22T04:11:39.074Z,19.7
2016-06-22T04:12:40.339Z,19.71
2016-06-22T04:13:40.329Z,19.67
2016-06-22T04:14:39.741Z,19.79
2016-06-22T04:15:39.175Z,19.77
2016-06-22T04:16:39.814Z,19.82
2016-06-22T04:17:40.425Z,19.81
2016-06-22T04:18:40.497Z,19.81
2016-06-22T04:19:39.860Z,19.81
2016-06-22T04:20:39.932Z,19.78
2016-06-22T04:21:39.905Z,19.9
2016-06-22T04:22:40.539Z,19.84
2016-06-22T04:23:39.973Z,19.84
2016-06-22T04:24:40.585Z,19.96
2016-06-22T04:25:39.398Z,19.96
2016-06-22T04:26:40.057Z,19.94
2016-06-22T04:27:40.643Z,19.96
2016-06-22T04:28:40.071Z,20.02
2016-06-22T04:29:40.103Z,20.08
2016-06-22T04:30:40.123Z,20.07
2016-06-22T04:31:40.749Z,20.17
2016-06-22T04:32:40.776Z,20.19
2016-06-22T04:33:40.783Z,20.21
2016-06-22T04:34:40.219Z,20.32
2016-06-22T04:35:40.866Z,20.21
2016-06-22T04:36:40.863Z,20.3
2016-06-22T04:37:41.026Z,20.29
2016-06-22T04:38:39.699Z,20.3
2016-06-22T04:39:39.730Z,20.34
2016-06-22T04:40:40.365Z,20.33
2016-06-22T04:41:39.799Z,20.29
2016-06-22T04:42:40.397Z,20.26
2016-06-22T04:43:41.083Z,20.27
2016-06-22T04:44:41.063Z,20.3
2016-06-22T04:45:40.496Z,20.27
2016-06-22T04:46:40.499Z,20.33
2016-06-22T04:47:40.531Z,20.37
2016-06-22T04:48:41.191Z,20.37
2016-06-22T04:49:41.183Z,20.3
2016-06-22T04:50:39.988Z,20.34
2016-06-22T04:51:40.625Z,20.22
2016-06-22T04:52:40.030Z,20.19
2016-06-22T04:53:40.078Z,20.15
2016-06-22T04:54:40.690Z,20.11
2016-06-22T04:55:40.137Z,20.1
2016-06-22T04:56:40.761Z,20.08
2016-06-22T04:57:40.789Z,20.08
2016-06-22T04:58:41.419Z,20.12
2016-06-22T04:59:40.213Z,20.15
2016-06-22T05:00:41.463Z,20.18
2016-06-22T05:01:40.244Z,20.19
2016-06-22T05:02:40.335Z,20.32
2016-06-22T05:03:41.513Z,20.49
2016-06-22T05:04:40.447Z,20.63
2016-06-22T05:05:40.353Z,20.82
2016-06-22T05:06:41.608Z,21.01
2016-06-22T05:07:41.626Z,21.23
2016-06-22T05:08:40.480Z,21.47
2016-06-22T05:09:41.654Z,21.78
2016-06-22T05:10:41.101Z,22.03
2016-06-22T05:11:41.110Z,22.31
2016-06-22T05:12:40.561Z,22.43
2016-06-22T05:13:40.625Z,22.53
2016-06-22T05:14:41.768Z,22.58
2016-06-22T05:15:40.685Z,22.65
2016-06-22T05:16:41.211Z,22.76
2016-06-22T05:17:40.633Z,22.83
2016-06-22T05:18:41.332Z,22.83
2016-06-22T05:19:41.303Z,22.88
2016-06-22T05:20:41.934Z,23.01
2016-06-22T05:21:41.423Z,23.11
2016-06-22T05:22:41.375Z,23.1
2016-06-22T05:23:41.405Z,23.13
2016-06-22T05:24:41.420Z,23.17
2016-06-22T05:25:41.435Z,23.07
2016-06-22T05:26:42.071Z,22.93
2016-06-22T05:27:41.521Z,22.78
2016-06-22T05:28:41.521Z,22.8
2016-06-22T05:29:41.551Z,22.67
2016-06-22T05:30:42.298Z,22.61
2016-06-22T05:31:41.592Z,22.59
2016-06-22T05:32:41.637Z,22.38
2016-06-22T05:33:42.318Z,22.33
2016-06-22T05:34:42.386Z,22.14
2016-06-22T05:35:42.308Z,22.1
2016-06-22T05:36:41.106Z,21.99
2016-06-22T05:37:41.142Z,21.92
2016-06-22T05:38:41.778Z,21.72
2016-06-22T05:39:42.408Z,21.63
2016-06-22T05:40:41.828Z,21.59
2016-06-22T05:41:42.479Z,21.48
2016-06-22T05:42:41.918Z,21.56
2016-06-22T05:43:41.297Z,21.47
2016-06-22T05:44:41.932Z,21.41
2016-06-22T05:45:41.432Z,21.38
2016-06-22T05:46:42.571Z,21.23
2016-06-22T05:47:41.398Z,21.15
2016-06-22T05:48:42.021Z,21.15
2016-06-22T05:49:42.674Z,21.1
2016-06-22T05:50:42.086Z,21.03
2016-06-22T05:51:41.483Z,20.95
2016-06-22T05:52:42.745Z,20.89
2016-06-22T05:53:42.146Z,20.8
2016-06-22T05:54:42.189Z,20.77
2016-06-22T05:55:42.225Z,20.64
2016-06-22T05:56:42.927Z,20.63
2016-06-22T05:57:42.264Z,20.64
2016-06-22T05:58:42.890Z,20.66
2016-06-22T05:59:42.891Z,20.44
2016-06-22T06:00:42.307Z,20.53
2016-06-22T06:01:42.351Z,20.39
2016-06-22T06:02:41.754Z,20.33
2016-06-22T06:03:43.002Z,20.27
2016-06-22T06:04:43.028Z,20.3
2016-06-22T06:05:42.438Z,20.18
2016-06-22T06:06:43.066Z,20.17
2016-06-22T06:07:43.209Z,20.1
2016-06-22T06:08:42.510Z,20.11
2016-06-22T06:09:43.203Z,20.02
2016-06-22T06:10:42.578Z,19.93
2016-06-22T06:11:42.585Z,19.96
2016-06-22T06:12:43.210Z,19.89
2016-06-22T06:13:42.628Z,19.84
2016-06-22T06:14:42.645Z,19.78
2016-06-22T06:15:42.087Z,19.75
2016-06-22T06:16:43.334Z,19.71
2016-06-22T06:17:42.727Z,19.77
2016-06-22T06:18:42.878Z,19.79
2016-06-22T06:19:42.771Z,19.81
2016-06-22T06:20:42.794Z,19.94
2016-06-22T06:21:42.835Z,20.1
2016-06-22T06:22:43.505Z,20.37
2016-06-22T06:23:42.865Z,20.48
2016-06-22T06:24:42.902Z,20.59
2016-06-22T06:25:42.910Z,20.8
2016-06-22T06:26:43.555Z,20.95
2016-06-22T06:27:42.965Z,21.04
2016-06-22T06:28:42.990Z,21.38
2016-06-22T06:29:43.033Z,21.48
2016-06-22T06:30:42.446Z,21.85
2016-06-22T06:31:43.080Z,22.04
2016-06-22T06:32:43.087Z,22.34
2016-06-22T06:33:43.779Z,22.52
2016-06-22T06:34:43.748Z,22.76
2016-06-22T06:35:43.189Z,22.76
2016-06-22T06:36:43.188Z,22.86
2016-06-22T06:37:42.586Z,23.04
2016-06-22T06:38:43.239Z,23.26
2016-06-22T06:39:43.269Z,23.84
2016-06-22T06:40:43.317Z,24.44
2016-06-22T06:41:43.313Z,25.51
2016-06-22T06:42:42.729Z,26.36
2016-06-22T06:43:43.960Z,26.89
2016-06-22T06:44:43.413Z,27.3
2016-06-22T06:45:43.419Z,27.78
2016-06-22T06:46:43.465Z,28.37
2016-06-22T06:47:42.973Z,29.31
2016-06-22T06:48:44.094Z,30.35
2016-06-22T06:49:43.616Z,30.98
2016-06-22T06:50:44.155Z,30.98
2016-06-22T06:51:43.582Z,30.71
2016-06-22T06:52:44.222Z,30.24
2016-06-22T06:53:44.289Z,29.52
2016-06-22T06:54:44.255Z,28.9
2016-06-22T06:55:43.735Z,28.64
2016-06-22T06:56:44.347Z,28.13
2016-06-22T06:57:44.415Z,27.78
2016-06-22T06:58:43.799Z,27.41
2016-06-22T06:59:44.437Z,27.13
2016-06-22T07:00:44.445Z,26.92
2016-06-22T07:01:44.506Z,26.89
2016-06-22T07:02:44.563Z,26.73
2016-06-22T07:03:43.308Z,26.53
2016-06-22T07:04:43.946Z,26.41
2016-06-22T07:05:43.999Z,26.24
2016-06-22T07:06:44.014Z,26.06
2016-06-22T07:07:44.653Z,25.8
2016-06-22T07:08:44.689Z,25.66
2016-06-22T07:09:43.510Z,25.56
2016-06-22T07:10:44.129Z,25.33
2016-06-22T07:11:44.766Z,25.19
2016-06-22T07:12:44.800Z,25.18
2016-06-22T07:13:44.846Z,25.19
2016-06-22T07:14:44.251Z,25.11
2016-06-22T07:15:44.863Z,25.25
2016-06-22T07:16:44.901Z,25.25
2016-06-22T07:17:45.739Z,25.33
2016-06-22T07:18:44.355Z,25.29
2016-06-22T07:19:45.886Z,25.18
2016-06-22T07:20:44.478Z,25.12
2016-06-22T07:21:45.553Z,25.16
2016-06-22T07:22:44.528Z,25.29
2016-06-22T07:23:45.311Z,25.34
2016-06-22T07:24:44.117Z,25.4
2016-06-22T07:25:44.263Z,25.44
2016-06-22T07:26:45.284Z,25.58
2016-06-22T07:27:44.817Z,25.62
2016-06-22T07:28:44.363Z,25.62
2016-06-22T07:29:44.062Z,25.73
2016-06-22T07:30:44.789Z,25.71
2016-06-22T07:31:44.900Z,25.83
2016-06-22T07:32:44.806Z,25.8
2016-06-22T07:33:44.889Z,25.71
2016-06-22T07:34:44.847Z,25.76
2016-06-22T07:35:45.623Z,25.86
2016-06-22T07:36:44.866Z,26.06
2016-06-22T07:37:44.998Z,26.08
2016-06-22T07:38:45.789Z,26.78
2016-06-22T07:39:44.410Z,27.52
2016-06-22T07:40:45.868Z,28.09
2016-06-22T07:41:45.798Z,28.46
2016-06-22T07:42:45.659Z,28.68
2016-06-22T07:43:45.686Z,29.06
2016-06-22T07:44:45.163Z,29.76
2016-06-22T07:45:45.735Z,30.58
2016-06-22T07:46:44.542Z,31
2016-06-22T07:47:44.614Z,31.54
2016-06-22T07:48:45.208Z,32
2016-06-22T07:49:45.914Z,33.15
2016-06-22T07:50:45.467Z,34.88
2016-06-22T07:51:45.420Z,34.93
2016-06-22T07:52:46.187Z,35.08
2016-06-22T07:53:46.005Z,35.42
2016-06-22T07:54:46.015Z,36.05
2016-06-22T07:55:45.495Z,36.43
2016-06-22T07:56:45.557Z,37.26
2016-06-22T07:57:45.495Z,37.78
2016-06-22T07:58:45.547Z,38.54
2016-06-22T07:59:45.543Z,39.11
2016-06-22T08:00:46.207Z,39.25
2016-06-22T08:01:45.622Z,38.6
2016-06-22T08:02:45.667Z,37.9
2016-06-22T08:03:46.298Z,37.22
2016-06-22T08:04:46.334Z,36.44
2016-06-22T08:05:45.189Z,35.75
2016-06-22T08:06:46.431Z,34.85
2016-06-22T08:07:45.951Z,33.84
2016-06-22T08:08:45.867Z,33.22
2016-06-22T08:09:45.916Z,32.75
2016-06-22T08:10:46.553Z,32.3
2016-06-22T08:11:46.082Z,31.73
2016-06-22T08:12:45.594Z,31.22
2016-06-22T08:13:45.594Z,30.71
2016-06-22T08:14:46.684Z,30.08
2016-06-22T08:15:46.121Z,29.71
2016-06-22T08:16:46.749Z,29.53
2016-06-22T08:17:46.182Z,29.24
2016-06-22T08:18:46.865Z,29.22
2016-06-22T08:19:46.876Z,29.4
2016-06-22T08:20:46.289Z,29.47
2016-06-22T08:21:45.719Z,29.53
2016-06-22T08:22:46.397Z,29.69
2016-06-22T08:23:46.408Z,29.95
2016-06-22T08:24:46.429Z,30.05
2016-06-22T08:25:47.068Z,30.08
2016-06-22T08:26:46.521Z,29.94
2016-06-22T08:27:47.111Z,29.81
2016-06-22T08:28:47.147Z,30.16
2016-06-22T08:29:45.982Z,30.21
2016-06-22T08:30:46.019Z,30.21
2016-06-22T08:31:46.049Z,30.11
2016-06-22T08:32:47.278Z,30.05
2016-06-22T08:33:46.099Z,30.06
2016-06-22T08:34:46.755Z,29.96
2016-06-22T08:35:47.372Z,29.69
2016-06-22T08:36:46.811Z,29.44
2016-06-22T08:37:46.840Z,29.12
2016-06-22T08:38:46.899Z,28.82
2016-06-22T08:39:46.357Z,28.43
2016-06-22T08:40:47.595Z,28.2
2016-06-22T08:41:47.553Z,28.13
2016-06-22T08:42:46.377Z,28.35
2016-06-22T08:43:47.625Z,28.86
2016-06-22T08:44:47.667Z,29.15
2016-06-22T08:45:47.702Z,29.31
2016-06-22T08:46:47.725Z,29.09
2016-06-22T08:47:47.279Z,28.82
2016-06-22T08:48:47.181Z,28.47
2016-06-22T08:49:47.866Z,28.09
2016-06-22T08:50:47.246Z,27.85
2016-06-22T08:51:47.867Z,27.67
2016-06-22T08:52:47.913Z,27.48
2016-06-22T08:53:47.944Z,27.29
2016-06-22T08:54:47.977Z,27.04
2016-06-22T08:55:48.027Z,26.92
2016-06-22T08:56:48.049Z,26.79
2016-06-22T08:57:47.457Z,26.73
2016-06-22T08:58:47.495Z,27.01
2016-06-22T08:59:47.526Z,27.1
2016-06-22T09:00:48.167Z,27.4
2016-06-22T09:01:47.587Z,27.76
2016-06-22T09:02:47.610Z,28.01
2016-06-22T09:03:48.254Z,28.12
2016-06-22T09:04:47.698Z,28.34
2016-06-22T09:05:47.857Z,28.62
2016-06-22T09:06:48.346Z,28.5
2016-06-22T09:07:48.415Z,28.34
2016-06-22T09:08:47.816Z,28.12
2016-06-22T09:09:47.847Z,27.76
2016-06-22T09:10:47.239Z,27.43
2016-06-22T09:11:48.490Z,27.03
2016-06-22T09:12:48.515Z,26.73
2016-06-22T09:13:48.552Z,26.46
2016-06-22T09:14:48.774Z,26.41
2016-06-22T09:15:47.399Z,26.31
2016-06-22T09:16:47.427Z,26.41
2016-06-22T09:17:47.457Z,26.64
2016-06-22T09:18:49.250Z,26.98
2016-06-22T09:19:47.519Z,27.33
2016-06-22T09:20:48.187Z,27.55
2016-06-22T09:21:48.838Z,27.71
2016-06-22T09:22:48.840Z,27.63
2016-06-22T09:23:48.224Z,27.73
2016-06-22T09:24:48.865Z,27.78
2016-06-22T09:25:48.307Z,27.98
2016-06-22T09:26:48.319Z,28.06
2016-06-22T09:27:48.381Z,28.37
2016-06-22T09:28:48.387Z,28.62
2016-06-22T09:29:47.798Z,28.97
2016-06-22T09:30:49.048Z,29.24
2016-06-22T09:31:49.122Z,29.52
2016-06-22T09:32:47.901Z,29.83
2016-06-22T09:33:48.525Z,30.01
2016-06-22T09:34:49.167Z,30.16
2016-06-22T09:35:48.584Z,30.03
2016-06-22T09:36:48.609Z,29.77
2016-06-22T09:37:48.686Z,29.3
2016-06-22T09:38:48.804Z,29.12
2016-06-22T09:39:48.356Z,29.06
2016-06-22T09:40:49.375Z,29.28
2016-06-22T09:41:49.383Z,29.46
2016-06-22T09:42:49.458Z,29.64
2016-06-22T09:43:49.460Z,29.87
2016-06-22T09:44:48.927Z,30.03
2016-06-22T09:45:49.508Z,30.31
2016-06-22T09:46:49.533Z,30.23
2016-06-22T09:47:48.961Z,30.01
2016-06-22T09:48:49.591Z,30.11
2016-06-22T09:49:49.118Z,29.98
2016-06-22T09:50:49.087Z,29.84
2016-06-22T09:51:48.481Z,29.65
2016-06-22T09:52:49.739Z,29.46
2016-06-22T09:53:49.845Z,29.09
2016-06-22T09:54:49.166Z,28.87
2016-06-22T09:55:49.807Z,28.82
2016-06-22T09:56:49.324Z,28.65
2016-06-22T09:57:49.875Z,28.65
2016-06-22T09:58:49.412Z,28.56
2016-06-22T09:59:49.323Z,28.6
2016-06-22T10:00:49.993Z,28.68
2016-06-22T10:01:48.795Z,28.93
2016-06-22T10:02:49.466Z,29.13
2016-06-22T10:03:48.927Z,29.4
2016-06-22T10:04:49.479Z,29.64
2016-06-22T10:05:49.533Z,29.84
2016-06-22T10:06:50.145Z,29.86
2016-06-22T10:07:49.006Z,29.94
2016-06-22T10:08:50.210Z,30.13
2016-06-22T10:09:49.688Z,30.26
2016-06-22T10:10:49.655Z,30.38
2016-06-22T10:11:50.306Z,30.38
2016-06-22T10:12:50.345Z,30.38
2016-06-22T10:14:49.220Z,30.27
2016-06-22T10:15:50.434Z,30.16
2016-06-22T10:16:50.449Z,30.26
2016-06-22T10:17:49.883Z,30.35
2016-06-22T10:18:49.938Z,30.62
2016-06-22T10:19:50.570Z,30.86
2016-06-22T10:20:50.609Z,31.14
2016-06-22T10:21:50.017Z,31.25
2016-06-22T10:22:49.412Z,31.36
2016-06-22T10:23:50.086Z,31.45
2016-06-22T10:24:49.499Z,31.44
2016-06-22T10:25:50.730Z,31.44
2016-06-22T10:26:50.168Z,31.39
2016-06-22T10:27:50.243Z,31.33
2016-06-22T10:28:50.222Z,31.11
2016-06-22T10:29:50.270Z,30.89
2016-06-22T10:30:49.688Z,30.65
2016-06-22T10:31:50.927Z,30.33
2016-06-22T10:32:49.756Z,30.18
2016-06-22T10:33:50.398Z,30.18
2016-06-22T10:34:51.024Z,30.36
2016-06-22T10:35:49.844Z,30.56
2016-06-22T10:36:51.101Z,30.77
2016-06-22T10:37:50.522Z,30.7
2016-06-22T10:38:50.550Z,30.78
2016-06-22T10:39:50.574Z,30.65
2016-06-22T10:40:50.609Z,30.59
2016-06-22T10:41:50.633Z,30.69
2016-06-22T10:42:50.703Z,30.59
2016-06-22T10:43:50.709Z,30.55
2016-06-22T10:44:51.401Z,30.39
2016-06-22T10:45:50.870Z,30.51
2016-06-22T10:46:50.792Z,30.63
2016-06-22T10:47:51.537Z,30.78
2016-06-22T10:48:50.865Z,30.71
2016-06-22T10:49:50.924Z,30.78
2016-06-22T10:50:51.527Z,30.61
2016-06-22T10:51:50.957Z,30.18
2016-06-22T10:52:51.627Z,29.76
2016-06-22T10:53:51.028Z,29.62
2016-06-22T10:54:50.456Z,29.44
2016-06-22T10:55:51.087Z,29.47
2016-06-22T10:56:51.134Z,29.34
2016-06-22T10:57:51.167Z,29.22
2016-06-22T10:58:51.884Z,29.12
2016-06-22T10:59:51.319Z,28.97
2016-06-22T11:00:51.242Z,28.78
2016-06-22T11:01:51.368Z,28.72
2016-06-22T11:02:51.310Z,28.67
2016-06-22T11:03:51.321Z,28.7
2016-06-22T11:04:51.976Z,28.72
2016-06-22T11:05:51.412Z,28.94
2016-06-22T11:06:52.251Z,29.07
2016-06-22T11:07:52.076Z,29.28
2016-06-22T11:08:51.643Z,29.43
2016-06-22T11:09:51.778Z,29.55
2016-06-22T11:10:51.744Z,29.5
2016-06-22T11:11:51.686Z,29.39
2016-06-22T11:12:52.354Z,29.42
2016-06-22T11:13:51.695Z,29.53
2016-06-22T11:14:52.280Z,29.57
2016-06-22T11:15:52.361Z,29.69
2016-06-22T11:16:52.402Z,29.8
2016-06-22T11:17:52.370Z,29.96
2016-06-22T11:18:52.602Z,30.11
2016-06-22T11:19:52.462Z,30.14
2016-06-22T11:20:52.457Z,30.24
2016-06-22T11:21:52.944Z,30.26
2016-06-22T11:22:52.598Z,30.11
2016-06-22T11:23:51.937Z,30.01
2016-06-22T11:24:52.606Z,29.84
2016-06-22T11:25:52.306Z,29.76
2016-06-22T11:26:52.036Z,29.9
2016-06-22T11:27:52.708Z,29.94
2016-06-22T11:28:52.115Z,29.96
2016-06-22T11:29:52.148Z,29.9
2016-06-22T11:30:51.572Z,29.71
2016-06-22T11:31:52.197Z,29.71
2016-06-22T11:32:51.628Z,29.8
2016-06-22T11:33:52.252Z,29.96
2016-06-22T11:34:52.906Z,30.13
2016-06-22T11:35:52.935Z,30.14
2016-06-22T11:36:52.353Z,30.26
2016-06-22T11:37:52.385Z,30.27
2016-06-22T11:38:51.803Z,30.4
2016-06-22T11:39:53.054Z,30.56
2016-06-22T11:40:53.096Z,30.77
2016-06-22T11:41:53.142Z,30.89
2016-06-22T11:42:53.144Z,30.36
2016-06-22T11:43:52.675Z,30.17
2016-06-22T11:44:53.225Z,30.31
2016-06-22T11:45:52.642Z,30.31
2016-06-22T11:46:52.658Z,30.36
2016-06-22T11:47:53.367Z,30.48
2016-06-22T11:48:53.325Z,30.48
2016-06-22T11:49:53.678Z,30.67
2016-06-22T11:50:52.798Z,30.67
2016-06-22T11:51:52.828Z,30.74
2016-06-22T11:52:52.865Z,30.58
2016-06-22T11:53:52.879Z,30.63
2016-06-22T11:54:52.913Z,30.63
2016-06-22T11:55:52.954Z,30.56
2016-06-22T11:56:52.988Z,30.54
2016-06-22T11:57:52.465Z,30.38
2016-06-22T11:58:53.057Z,30.39
2016-06-22T11:59:53.069Z,30.36
2016-06-22T12:00:53.153Z,30.44
2016-06-22T12:01:53.231Z,30.61
2016-06-22T12:02:53.768Z,30.93
2016-06-22T12:03:53.802Z,31.1
2016-06-22T12:04:53.243Z,31.23
2016-06-22T12:05:53.314Z,31.18
2016-06-22T12:06:53.894Z,31.15
2016-06-22T12:07:53.325Z,31.05
2016-06-22T12:08:52.747Z,30.95
2016-06-22T12:09:54.006Z,30.69
2016-06-22T12:10:54.057Z,30.74
2016-06-22T12:11:53.473Z,30.65
2016-06-22T12:12:53.572Z,30.55
2016-06-22T12:13:53.510Z,30.52
2016-06-22T12:14:53.614Z,30.27
2016-06-22T12:15:53.034Z,30.11
2016-06-22T12:16:53.052Z,30.27
2016-06-22T12:17:54.261Z,30.35
2016-06-22T12:18:53.109Z,30.35
2016-06-22T12:19:53.703Z,30.44
2016-06-22T12:20:54.416Z,30.32
2016-06-22T12:21:54.374Z,30.29
2016-06-22T12:22:53.807Z,30.35
2016-06-22T12:23:53.826Z,30.46
2016-06-22T12:24:53.859Z,30.33
2016-06-22T12:25:54.501Z,30.26
2016-06-22T12:26:53.926Z,30.32
2016-06-22T12:27:54.565Z,30.49
2016-06-22T12:28:53.994Z,30.63
2016-06-22T12:29:54.634Z,30.54
2016-06-22T12:30:54.662Z,30.59
2016-06-22T12:31:53.477Z,30.56
2016-06-22T12:32:54.766Z,30.62
2016-06-22T12:33:54.756Z,30.59
2016-06-22T12:34:54.178Z,30.59
2016-06-22T12:35:54.185Z,30.78
2016-06-22T12:36:53.619Z,31.07
2016-06-22T12:37:54.866Z,30.99
2016-06-22T12:38:54.291Z,31.1
2016-06-22T12:39:54.410Z,31.17
2016-06-22T12:40:54.981Z,31.02
2016-06-22T12:41:55.006Z,30.88
2016-06-22T12:42:54.403Z,30.62
2016-06-22T12:43:54.499Z,30.2
2016-06-22T12:44:55.090Z,29.95
2016-06-22T12:45:55.168Z,29.83
2016-06-22T12:46:54.544Z,29.87
2016-06-22T12:47:54.568Z,30.03
2016-06-22T12:48:54.003Z,30.16
2016-06-22T12:49:54.633Z,30.29
2016-06-22T12:50:55.306Z,30.39
2016-06-22T12:51:55.328Z,30.55
2016-06-22T12:52:55.397Z,30.61
2016-06-22T12:53:55.377Z,30.73
2016-06-22T12:54:54.196Z,30.81
2016-06-22T12:55:55.444Z,31.02